Time,TemperatureF,DewpointF,PressureIn,WindDirection,WindDirectionDegrees,WindSpeedMPH,WindSpeedGustMPH,Humidity,HourlyPrecipIn,Conditions,Clouds,dailyrainin,SoftwareType,DateUTC
2013-09-14 00:04:00,59.9,57.0,29.65,SSW,202,0.0,1.0,90,0.00,RA,,0.00,WeatherDisplay:10.37,2013-09-14 04:04:00,
2013-09-14 00:09:00,59.9,57.0,29.65,South,178,0.0,0.0,90,0.00,CLR,,0.00,WeatherDisplay:10.37,2013-09-14 04:09:00,
2013-09-14 00:14:00,59.9,57.0,29.66,South,186,0.0,0.0,90,0.00,CLR,,0.00,WeatherDisplay:10.37,2013-09-14 04:14:00,
2013-09-14 00:19:00,59.7,56.8,29.68,NW,317,0.0,0.0,90,0.00,CLR,,0.00,WeatherDisplay:10.37,2013-09-14 04:19:00,
2013-09-14 00:24:00,59.7,56.8,29.68,SSW,206,0.0,1.0,90,0.00,CLR,,0.00,WeatherDisplay:10.37,2013-09-14 04:24:00,
2013-09-14 00:29:00,59.7,56.8,29.68,SW,226,0.0,1.0,90,0.00,CLR,,0.00,WeatherDisplay:10.37,2013-09-14 04:29:00,
2013-09-14 00:34:00,59.7,56.8,29.68,SW,225,0.0,0.0,90,0.00,CLR,,0.00,WeatherDisplay:10.37,2013-09-14 04:34:00,
2013-09-14 00:39:00,59.7,56.8,29.68,WSW,250,1.0,1.0,90,0.00,CLR,,0.00,WeatherDisplay:10.37,2013-09-14 04:39:00,
2013-09-14 00:44:00,59.7,56.8,29.68,WSW,254,0.0,1.0,90,0.00,CLR,,0.00,WeatherDisplay:10.37,2013-09-14 04:44:00,
2013-09-14 00:49:00,59.5,56.6,29.68,WSW,246,1.0,1.0,90,0.00,CLR,,0.00,WeatherDisplay:10.37,2013-09-14 04:49:00,
2013-09-14 00:54:00,59.5,56.6,29.68,SW,236,0.0,1.0,90,0.00,CLR,,0.00,WeatherDisplay:10.37,2013-09-14 04:54:00,
2013-09-14 00:59:00,59.4,56.4,29.68,SSW,211,0.0,1.0,90,0.00,CLR,,0.00,WeatherDisplay:10.37,2013-09-14 04:59:00,
2013-09-14 01:04:00,59.2,56.2,29.68,South,187,0.0,1.0,90,0.00,CLR,,0.00,WeatherDisplay:10.37,2013-09-14 05:04:00,
2013-09-14 01:09:00,59.2,56.2,29.68,WSW,245,0.0,1.0,90,0.00,CLR,,0.00,WeatherDisplay:10.37,2013-09-14 05:09:00,
2013-09-14 01:14:00,59.1,56.2,29.68,WSW,248,0.0,1.0,90,0.00,CLR,,0.00,WeatherDisplay:10.37,2013-09-14 05:14:00,
2013-09-14 01:19:00,59.0,56.1,29.68,West,261,0.0,1.0,90,0.00,CLR,,0.00,WeatherDisplay:10.37,2013-09-14 05:19:00,
2013-09-14 01:24:00,58.8,55.9,29.68,WSW,257,0.0,1.0,90,0.00,CLR,,0.00,WeatherDisplay:10.37,2013-09-14 05:24:00,
2013-09-14 01:29:00,58.8,55.9,29.69,WSW,255,0.0,1.0,90,0.00,CLR,,0.00,WeatherDisplay:10.37,2013-09-14 05:29:00,
2013-09-14 01:34:00,58.6,55.7,29.71,West,260,1.0,1.0,90,0.00,CLR,,0.00,WeatherDisplay:10.37,2013-09-14 05:34:00,
2013-09-14 01:39:00,58.5,55.9,29.71,West,261,1.0,2.0,91,0.00,CLR,,0.00,WeatherDisplay:10.37,2013-09-14 05:39:00,
2013-09-14 01:44:00,58.5,55.8,29.71,WSW,245,0.0,1.0,91,0.00,CLR,,0.00,WeatherDisplay:10.37,2013-09-14 05:44:00,
2013-09-14 01:49:00,58.5,55.8,29.71,SW,220,0.0,0.0,91,0.00,CLR,,0.00,WeatherDisplay:10.37,2013-09-14 05:49:00,
2013-09-14 01:54:00,58.5,55.8,29.71,SW,220,1.0,1.0,91,0.00,CLR,,0.00,WeatherDisplay:10.37,2013-09-14 05:54:00,
2013-09-14 01:59:00,58.3,55.7,29.71,SW,234,1.0,1.0,91,0.00,CLR,,0.00,WeatherDisplay:10.37,2013-09-14 05:59:00,
2013-09-14 02:04:00,58.3,55.7,29.71,WSW,244,0.0,1.0,91,0.00,CLR,,0.00,WeatherDisplay:10.37,2013-09-14 06:04:00,
2013-09-14 02:09:00,58.3,55.7,29.71,SSW,206,1.0,2.0,91,0.00,CLR,,0.00,WeatherDisplay:10.37,2013-09-14 06:09:00,
2013-09-14 02:14:00,58.1,55.1,29.71,South,183,0.0,0.0,90,0.00,CLR,,0.00,WeatherDisplay:10.37,2013-09-14 06:14:00,
2013-09-14 02:19:00,57.9,55.0,29.71,South,183,1.0,1.0,90,0.00,CLR,,0.00,WeatherDisplay:10.37,2013-09-14 06:19:00,
2013-09-14 02:24:00,57.7,54.8,29.71,SSW,193,0.0,1.0,90,0.00,CLR,,0.00,WeatherDisplay:10.37,2013-09-14 06:24:00,
2013-09-14 02:29:00,57.7,54.8,29.71,WSW,240,0.0,0.0,90,0.00,CLR,,0.00,WeatherDisplay:10.37,2013-09-14 06:29:00,
2013-09-14 02:34:00,57.7,54.8,29.71,WSW,249,0.0,1.0,90,0.00,CLR,,0.00,WeatherDisplay:10.37,2013-09-14 06:34:00,
2013-09-14 02:40:00,57.7,54.8,29.71,SW,221,0.0,1.0,90,0.00,CLR,,0.00,WeatherDisplay:10.37,2013-09-14 06:40:00,
2013-09-14 02:49:00,57.2,54.3,29.71,SSW,198,0.0,0.0,90,0.00,CLR,,0.00,WeatherDisplay:10.37,2013-09-14 06:49:00,
2013-09-14 02:54:00,57.0,54.4,29.71,SSW,198,0.0,0.0,91,0.00,CLR,,0.00,WeatherDisplay:10.37,2013-09-14 06:54:00,
2013-09-14 02:59:00,56.8,54.2,29.71,SW,223,0.0,0.0,91,0.00,CLR,,0.00,WeatherDisplay:10.37,2013-09-14 06:59:00,
2013-09-14 03:04:00,56.8,54.2,29.71,SSE,165,0.0,0.0,91,0.00,CLR,,0.00,WeatherDisplay:10.37,2013-09-14 07:04:00,
2013-09-14 03:09:00,56.8,54.2,29.71,SSE,147,0.0,0.0,91,0.00,CLR,,0.00,WeatherDisplay:10.37,2013-09-14 07:09:00,
2013-09-14 03:14:00,56.8,54.2,29.71,SSE,167,0.0,0.0,91,0.00,CLR,,0.00,WeatherDisplay:10.37,2013-09-14 07:14:00,
2013-09-14 03:19:00,56.8,54.2,29.71,SSE,162,0.0,0.0,91,0.00,CLR,,0.00,WeatherDisplay:10.37,2013-09-14 07:19:00,
2013-09-14 03:24:00,56.8,54.2,29.71,SSE,147,0.0,0.0,91,0.00,CLR,,0.00,WeatherDisplay:10.37,2013-09-14 07:24:00,
2013-09-14 03:29:00,56.1,53.5,29.71,SSE,153,0.0,0.0,91,0.00,CLR,,0.00,WeatherDisplay:10.37,2013-09-14 07:29:00,
2013-09-14 03:34:00,55.9,53.4,29.71,SSW,194,0.0,1.0,91,0.00,CLR,,0.00,WeatherDisplay:10.37,2013-09-14 07:34:00,
2013-09-14 03:39:00,55.9,53.4,29.74,SSW,199,0.0,1.0,91,0.00,CLR,,0.00,WeatherDisplay:10.37,2013-09-14 07:39:00,
2013-09-14 03:44:00,55.8,53.2,29.74,SSW,196,0.0,1.0,91,0.00,CLR,,0.00,WeatherDisplay:10.37,2013-09-14 07:44:00,
2013-09-14 03:49:00,55.8,53.2,29.74,SSW,208,0.0,0.0,91,0.00,CLR,,0.00,WeatherDisplay:10.37,2013-09-14 07:49:00,
2013-09-14 03:54:00,55.5,52.9,29.74,SSW,199,0.0,0.0,91,0.00,CLR,,0.00,WeatherDisplay:10.37,2013-09-14 07:54:00,
2013-09-14 03:59:00,55.4,52.8,29.74,South,190,1.0,1.0,91,0.00,CLR,,0.00,WeatherDisplay:10.37,2013-09-14 07:59:00,
2013-09-14 04:04:00,55.2,52.6,29.74,South,184,0.0,1.0,91,0.00,CLR,,0.00,WeatherDisplay:10.37,2013-09-14 08:04:00,
2013-09-14 04:09:00,55.2,52.6,29.74,SW,235,0.0,2.0,91,0.00,CLR,,0.00,WeatherDisplay:10.37,2013-09-14 08:09:00,
2013-09-14 04:14:00,55.2,52.6,29.74,WSW,240,0.0,1.0,91,0.00,CLR,,0.00,WeatherDisplay:10.37,2013-09-14 08:14:00,
2013-09-14 04:19:00,55.0,52.5,29.74,SW,220,1.0,1.0,91,0.00,CLR,,0.00,WeatherDisplay:10.37,2013-09-14 08:19:00,
2013-09-14 04:24:00,55.0,52.5,29.74,WSW,243,0.0,1.0,91,0.00,CLR,,0.00,WeatherDisplay:10.37,2013-09-14 08:24:00,
2013-09-14 04:29:00,54.9,52.6,29.74,West,264,0.0,2.0,92,0.00,CLR,,0.00,WeatherDisplay:10.37,2013-09-14 08:29:00,
2013-09-14 04:34:00,54.9,52.6,29.74,SW,214,1.0,1.0,92,0.00,CLR,,0.00,WeatherDisplay:10.37,2013-09-14 08:34:00,
2013-09-14 04:39:00,54.9,52.6,29.74,South,179,0.0,1.0,92,0.00,CLR,,0.00,WeatherDisplay:10.37,2013-09-14 08:39:00,
2013-09-14 04:44:00,54.7,52.4,29.74,SW,230,0.0,1.0,92,0.00,CLR,,0.00,WeatherDisplay:10.37,2013-09-14 08:44:00,
2013-09-14 04:49:00,54.7,52.4,29.74,WSW,244,0.0,2.0,92,0.00,CLR,,0.00,WeatherDisplay:10.37,2013-09-14 08:49:00,
2013-09-14 04:54:00,54.6,52.3,29.74,SW,216,0.0,0.0,92,0.00,CLR,,0.00,WeatherDisplay:10.37,2013-09-14 08:54:00,
2013-09-14 04:59:00,54.5,52.2,29.74,SSE,153,0.0,1.0,92,0.00,CLR,,0.00,WeatherDisplay:10.37,2013-09-14 08:59:00,
2013-09-14 05:04:00,54.5,52.2,29.74,SSE,162,0.0,0.0,92,0.00,CLR,,0.00,WeatherDisplay:10.37,2013-09-14 09:04:00,
2013-09-14 05:09:00,54.3,52.0,29.74,SW,222,1.0,1.0,92,0.00,CLR,,0.00,WeatherDisplay:10.37,2013-09-14 09:09:00,
2013-09-14 05:14:00,54.3,52.0,29.74,SW,218,0.0,1.0,92,0.00,CLR,,0.00,WeatherDisplay:10.37,2013-09-14 09:14:00,
2013-09-14 05:19:00,54.1,51.9,29.74,SSW,195,1.0,1.0,92,0.00,CLR,,0.00,WeatherDisplay:10.37,2013-09-14 09:19:00,
2013-09-14 05:24:00,54.1,51.9,29.74,SSE,163,0.0,1.0,92,0.00,CLR,,0.00,WeatherDisplay:10.37,2013-09-14 09:24:00,
2013-09-14 05:29:00,54.0,51.7,29.74,SSW,211,0.0,1.0,92,0.00,CLR,,0.00,WeatherDisplay:10.37,2013-09-14 09:29:00,
2013-09-14 05:34:00,54.0,51.7,29.74,SSW,210,0.0,1.0,92,0.00,CLR,,0.00,WeatherDisplay:10.37,2013-09-14 09:34:00,
2013-09-14 05:40:00,53.8,51.5,29.74,South,169,0.0,0.0,92,0.00,CLR,,0.00,WeatherDisplay:10.37,2013-09-14 09:40:00,
2013-09-14 05:49:00,53.7,51.4,29.77,SSE,167,0.0,0.0,92,0.00,CLR,,0.00,WeatherDisplay:10.37,2013-09-14 09:49:00,
2013-09-14 05:54:00,53.6,51.3,29.77,ESE,111,0.0,1.0,92,0.00,CLR,,0.00,WeatherDisplay:10.37,2013-09-14 09:54:00,
2013-09-14 05:59:00,53.6,51.3,29.77,SE,125,0.0,0.0,92,0.00,CLR,,0.00,WeatherDisplay:10.37,2013-09-14 09:59:00,
2013-09-14 06:04:00,53.4,51.2,29.77,SSE,150,0.0,2.0,92,0.00,CLR,,0.00,WeatherDisplay:10.37,2013-09-14 10:04:00,
2013-09-14 06:09:00,53.2,51.0,29.77,SE,132,0.0,0.0,92,0.00,CLR,,0.00,WeatherDisplay:10.37,2013-09-14 10:09:00,
2013-09-14 06:14:00,53.2,51.0,29.77,SSE,153,0.0,0.0,92,0.00,CLR,,0.00,WeatherDisplay:10.37,2013-09-14 10:14:00,
2013-09-14 06:19:00,53.2,51.0,29.77,South,174,0.0,0.0,92,0.00,CLR,,0.00,WeatherDisplay:10.37,2013-09-14 10:19:00,
2013-09-14 06:24:00,53.1,50.8,29.77,South,180,0.0,0.0,92,0.00,CLR,,0.00,WeatherDisplay:10.37,2013-09-14 10:24:00,
2013-09-14 06:29:00,53.1,50.8,29.77,South,180,0.0,0.0,92,0.00,CLR,,0.00,WeatherDisplay:10.37,2013-09-14 10:29:00,
2013-09-14 06:34:00,53.0,50.7,29.77,South,172,0.0,0.0,92,0.00,CLR,,0.00,WeatherDisplay:10.37,2013-09-14 10:34:00,
2013-09-14 06:39:00,52.9,50.6,29.77,SSE,160,0.0,0.0,92,0.00,CLR,,0.00,WeatherDisplay:10.37,2013-09-14 10:39:00,
2013-09-14 06:44:00,52.9,50.6,29.77,South,175,0.0,0.0,92,0.00,CLR,,0.00,WeatherDisplay:10.37,2013-09-14 10:44:00,
2013-09-14 06:49:00,52.9,50.6,29.77,South,173,0.0,0.0,92,0.00,CLR,,0.00,WeatherDisplay:10.37,2013-09-14 10:49:00,
2013-09-14 06:54:00,52.9,50.6,29.77,SSE,161,0.0,0.0,92,0.00,CLR,,0.00,WeatherDisplay:10.37,2013-09-14 10:54:00,
2013-09-14 06:59:00,52.7,50.4,29.78,SSW,194,0.0,0.0,92,0.00,CLR,,0.00,WeatherDisplay:10.37,2013-09-14 10:59:00,
2013-09-14 07:04:00,52.7,50.4,29.80,SW,223,0.0,0.0,92,0.00,CLR,,0.00,WeatherDisplay:10.37,2013-09-14 11:04:00,
2013-09-14 07:09:00,52.5,50.3,29.80,South,187,0.0,2.0,92,0.00,CLR,,0.00,WeatherDisplay:10.37,2013-09-14 11:09:00,
2013-09-14 07:14:00,52.5,50.3,29.80,SSE,161,0.0,0.0,92,0.00,CLR,,0.00,WeatherDisplay:10.37,2013-09-14 11:14:00,
2013-09-14 07:19:00,52.6,50.4,29.80,South,180,0.0,1.0,92,0.00,CLR,,0.00,WeatherDisplay:10.37,2013-09-14 11:19:00,
2013-09-14 07:24:00,52.7,50.4,29.80,South,184,0.0,0.0,92,0.00,CLR,,0.00,WeatherDisplay:10.37,2013-09-14 11:24:00,
2013-09-14 07:29:00,52.7,50.4,29.80,South,178,0.0,1.0,92,0.00,CLR,,0.00,WeatherDisplay:10.37,2013-09-14 11:29:00,
2013-09-14 07:34:00,52.7,50.4,29.80,SW,236,0.0,0.0,92,0.00,CLR,,0.00,WeatherDisplay:10.37,2013-09-14 11:34:00,
2013-09-14 07:39:00,52.7,50.7,29.80,WSW,254,1.0,2.0,93,0.00,CLR,,0.00,WeatherDisplay:10.37,2013-09-14 11:39:00,
2013-09-14 07:44:00,52.7,50.7,29.80,SW,214,1.0,2.0,93,0.00,CLR,,0.00,WeatherDisplay:10.37,2013-09-14 11:44:00,
2013-09-14 07:49:00,52.9,50.9,29.80,SW,231,1.0,2.0,93,0.00,CLR,,0.00,WeatherDisplay:10.37,2013-09-14 11:49:00,
2013-09-14 07:54:00,53.1,51.1,29.80,WSW,252,0.0,2.0,93,0.00,CLR,,0.00,WeatherDisplay:10.37,2013-09-14 11:54:00,
2013-09-14 07:59:00,53.2,51.3,29.80,North,357,1.0,2.0,93,0.00,CLR,,0.00,WeatherDisplay:10.37,2013-09-14 11:59:00,
2013-09-14 08:04:00,53.4,51.4,29.80,North,9,0.0,2.0,93,0.00,CLR,,0.00,WeatherDisplay:10.37,2013-09-14 12:04:00,
2013-09-14 08:09:00,53.6,51.3,29.80,NNE,14,0.0,1.0,92,0.00,CLR,,0.00,WeatherDisplay:10.37,2013-09-14 12:09:00,
2013-09-14 08:14:00,53.7,51.5,29.80,WNW,300,0.0,3.0,92,0.00,CLR,,0.00,WeatherDisplay:10.37,2013-09-14 12:14:00,
2013-09-14 08:19:00,54.0,51.7,29.80,West,280,1.0,2.0,92,0.00,CLR,,0.00,WeatherDisplay:10.37,2013-09-14 12:19:00,
2013-09-14 08:24:00,54.1,51.9,29.80,NW,311,0.0,2.0,92,0.00,CLR,,0.00,WeatherDisplay:10.37,2013-09-14 12:24:00,
2013-09-14 08:29:00,54.1,51.9,29.80,NW,316,0.0,3.0,92,0.00,CLR,,0.00,WeatherDisplay:10.37,2013-09-14 12:29:00,
2013-09-14 08:34:00,54.3,52.0,29.80,ENE,62,1.0,1.0,92,0.00,CLR,,0.00,WeatherDisplay:10.37,2013-09-14 12:34:00,
2013-09-14 08:39:00,54.5,52.2,29.80,NNW,342,1.0,2.0,92,0.00,CLR,,0.00,WeatherDisplay:10.37,2013-09-14 12:39:00,
2013-09-14 08:44:00,54.7,52.4,29.80,NNW,341,0.0,2.0,92,0.00,CLR,,0.00,WeatherDisplay:10.37,2013-09-14 12:44:00,
2013-09-14 08:49:00,54.9,52.6,29.80,North,357,2.0,2.0,92,0.00,CLR,,0.00,WeatherDisplay:10.37,2013-09-14 12:49:00,
2013-09-14 08:54:00,55.0,52.5,29.80,WSW,247,0.0,3.0,91,0.00,CLR,,0.00,WeatherDisplay:10.37,2013-09-14 12:54:00,
2013-09-14 08:59:00,55.2,52.6,29.80,WSW,253,2.0,2.0,91,0.00,CLR,,0.00,WeatherDisplay:10.37,2013-09-14 12:59:00,
2013-09-14 09:04:00,55.6,53.0,29.80,WSW,238,1.0,3.0,91,0.00,CLR,,0.00,WeatherDisplay:10.37,2013-09-14 13:04:00,
2013-09-14 09:09:00,55.8,52.9,29.80,SSW,207,1.0,3.0,90,0.00,CLR,,0.00,WeatherDisplay:10.37,2013-09-14 13:09:00,
2013-09-14 09:14:00,55.9,53.0,29.80,SSW,206,0.0,2.0,90,0.00,CLR,,0.00,WeatherDisplay:10.37,2013-09-14 13:14:00,
2013-09-14 09:19:00,56.1,53.2,29.80,East,94,1.0,3.0,90,0.00,CLR,,0.00,WeatherDisplay:10.37,2013-09-14 13:19:00,
2013-09-14 09:24:00,56.1,52.9,29.80,East,92,1.0,2.0,89,0.00,CLR,,0.00,WeatherDisplay:10.37,2013-09-14 13:24:00,
2013-09-14 09:29:00,56.3,53.1,29.80,East,94,1.0,2.0,89,0.00,CLR,,0.00,WeatherDisplay:10.37,2013-09-14 13:29:00,
2013-09-14 09:34:00,56.7,53.5,29.80,ENE,61,1.0,2.0,89,0.00,CLR,,0.00,WeatherDisplay:10.37,2013-09-14 13:34:00,
2013-09-14 09:39:00,56.7,53.8,29.83,ENE,65,0.0,2.0,90,0.00,CLR,,0.00,WeatherDisplay:10.37,2013-09-14 13:39:00,
2013-09-14 09:44:00,56.9,54.0,29.83,SSE,152,1.0,3.0,90,0.00,CLR,,0.00,WeatherDisplay:10.37,2013-09-14 13:44:00,
2013-09-14 09:49:00,57.2,54.0,29.83,WNW,282,1.0,1.0,89,0.00,CLR,,0.00,WeatherDisplay:10.37,2013-09-14 13:49:00,
2013-09-14 09:54:00,57.6,54.3,29.83,WSW,237,1.0,2.0,89,0.00,CLR,,0.00,WeatherDisplay:10.37,2013-09-14 13:54:00,
2013-09-14 09:59:00,57.7,54.5,29.83,West,266,0.0,3.0,89,0.00,CLR,,0.00,WeatherDisplay:10.37,2013-09-14 13:59:00,
2013-09-14 10:04:00,57.9,54.4,29.83,NE,46,1.0,3.0,88,0.00,CLR,,0.00,WeatherDisplay:10.37,2013-09-14 14:04:00,
2013-09-14 10:09:00,58.1,54.9,29.83,East,80,1.0,2.0,89,0.00,CLR,,0.00,WeatherDisplay:10.37,2013-09-14 14:09:00,
2013-09-14 10:14:00,58.4,54.8,29.83,ENE,59,1.0,2.0,88,0.00,CLR,,0.00,WeatherDisplay:10.37,2013-09-14 14:14:00,
2013-09-14 10:19:00,58.8,55.3,29.83,NW,305,2.0,3.0,88,0.00,CLR,,0.00,WeatherDisplay:10.37,2013-09-14 14:19:00,
2013-09-14 10:24:00,59.0,55.4,29.83,WNW,303,1.0,2.0,88,0.00,CLR,,0.00,WeatherDisplay:10.37,2013-09-14 14:24:00,
2013-09-14 10:29:00,59.2,55.3,29.83,ENE,67,1.0,4.0,87,0.00,CLR,,0.00,WeatherDisplay:10.37,2013-09-14 14:29:00,
2013-09-14 10:34:00,59.4,55.5,29.83,ENE,73,3.0,3.0,87,0.00,CLR,,0.00,WeatherDisplay:10.37,2013-09-14 14:34:00,
2013-09-14 10:39:00,59.5,55.6,29.83,NNE,28,2.0,2.0,87,0.00,CLR,,0.00,WeatherDisplay:10.37,2013-09-14 14:39:00,
2013-09-14 10:44:00,59.9,56.0,29.83,West,278,1.0,3.0,87,0.00,CLR,,0.00,WeatherDisplay:10.37,2013-09-14 14:44:00,
2013-09-14 10:49:00,60.1,55.9,29.83,WSW,256,1.0,3.0,86,0.00,CLR,,0.00,WeatherDisplay:10.37,2013-09-14 14:49:00,
2013-09-14 10:54:00,60.4,56.2,29.83,West,273,2.0,5.0,86,0.00,CLR,,0.00,WeatherDisplay:10.37,2013-09-14 14:54:00,
2013-09-14 10:59:00,60.6,56.1,29.83,NW,309,2.0,3.0,85,0.00,CLR,,0.00,WeatherDisplay:10.37,2013-09-14 14:59:00,
2013-09-14 11:04:00,61.0,56.4,29.83,West,265,3.0,4.0,85,0.00,CLR,,0.00,WeatherDisplay:10.37,2013-09-14 15:04:00,
2013-09-14 11:09:00,61.2,56.3,29.83,WNW,283,3.0,4.0,84,0.00,CLR,,0.00,WeatherDisplay:10.37,2013-09-14 15:09:00,
2013-09-14 11:14:00,61.4,56.5,29.83,WNW,302,3.0,3.0,84,0.00,CLR,,0.00,WeatherDisplay:10.37,2013-09-14 15:14:00,
2013-09-14 11:19:00,61.5,56.3,29.83,East,90,0.0,3.0,83,0.00,CLR,,0.00,WeatherDisplay:10.37,2013-09-14 15:19:00,
2013-09-14 11:24:00,61.7,56.5,29.83,NNW,345,2.0,2.0,83,0.00,CLR,,0.00,WeatherDisplay:10.37,2013-09-14 15:24:00,
2013-09-14 11:29:00,62.1,56.8,29.83,NW,308,1.0,2.0,83,0.00,CLR,,0.00,WeatherDisplay:10.37,2013-09-14 15:29:00,
2013-09-14 11:34:00,61.9,55.6,29.83,North,11,2.0,5.0,80,0.00,CLR,,0.00,WeatherDisplay:10.37,2013-09-14 15:34:00,
2013-09-14 11:39:00,62.1,56.2,29.83,ENE,59,1.0,3.0,81,0.00,CLR,,0.00,WeatherDisplay:10.37,2013-09-14 15:39:00,
2013-09-14 11:44:00,62.1,56.2,29.83,East,89,2.0,3.0,81,0.00,CLR,,0.00,WeatherDisplay:10.37,2013-09-14 15:44:00,
2013-09-14 11:49:00,62.2,56.3,29.83,East,93,1.0,5.0,81,0.00,CLR,,0.00,WeatherDisplay:10.37,2013-09-14 15:49:00,
2013-09-14 11:54:00,62.6,56.7,29.83,East,80,2.0,2.0,81,0.00,CLR,,0.00,WeatherDisplay:10.37,2013-09-14 15:54:00,
2013-09-14 11:59:00,62.8,56.9,29.84,NW,313,2.0,3.0,81,0.00,CLR,,0.00,WeatherDisplay:10.37,2013-09-14 15:59:00,
2013-09-14 12:04:00,63.1,57.2,29.85,WNW,290,2.0,2.0,81,0.00,CLR,,0.00,WeatherDisplay:10.37,2013-09-14 16:04:00,
2013-09-14 12:09:00,63.1,56.1,29.85,SSE,157,3.0,4.0,78,0.00,CLR,,0.00,WeatherDisplay:10.37,2013-09-14 16:09:00,
2013-09-14 12:14:00,63.5,56.9,29.84,SSW,207,1.0,3.0,79,0.00,CLR,,0.00,WeatherDisplay:10.37,2013-09-14 16:14:00,
2013-09-14 12:19:00,63.5,57.2,29.83,ESE,119,5.0,7.0,80,0.00,CLR,,0.00,WeatherDisplay:10.37,2013-09-14 16:19:00,
2013-09-14 12:24:00,63.1,56.5,29.83,East,91,0.0,3.0,79,0.00,CLR,,0.00,WeatherDisplay:10.37,2013-09-14 16:24:00,
2013-09-14 12:29:00,63.3,57.0,29.84,SE,143,3.0,5.0,80,0.00,CLR,,0.00,WeatherDisplay:10.37,2013-09-14 16:29:00,
2013-09-14 12:34:00,63.5,56.5,29.85,NW,320,2.0,5.0,78,0.00,CLR,,0.00,WeatherDisplay:10.37,2013-09-14 16:34:00,
2013-09-14 12:39:00,63.7,57.5,29.85,NW,311,1.0,2.0,80,0.00,CLR,,0.00,WeatherDisplay:10.37,2013-09-14 16:39:00,
2013-09-14 12:44:00,64.0,57.4,29.84,ESE,104,1.0,3.0,79,0.00,CLR,,0.00,WeatherDisplay:10.37,2013-09-14 16:44:00,
2013-09-14 12:49:00,63.5,55.4,29.83,SE,132,1.0,3.0,75,0.00,CLR,,0.00,WeatherDisplay:10.37,2013-09-14 16:49:00,
2013-09-14 12:54:00,64.0,55.6,29.83,East,99,1.0,3.0,74,0.00,CLR,,0.00,WeatherDisplay:10.37,2013-09-14 16:54:00,
2013-09-14 12:59:00,64.4,57.0,29.84,North,349,2.0,3.0,77,0.00,CLR,,0.00,WeatherDisplay:10.37,2013-09-14 16:59:00,
2013-09-14 13:04:00,64.2,56.9,29.85,NNE,21,2.0,2.0,77,0.00,CLR,,0.00,WeatherDisplay:10.37,2013-09-14 17:04:00,
2013-09-14 13:09:00,64.8,57.7,29.85,NNE,18,1.0,3.0,78,0.00,CLR,,0.00,WeatherDisplay:10.37,2013-09-14 17:09:00,
2013-09-14 13:14:00,64.8,57.7,29.85,SW,232,3.0,5.0,78,0.00,CLR,,0.00,WeatherDisplay:10.37,2013-09-14 17:14:00,
2013-09-14 13:19:00,64.9,57.6,29.85,WSW,254,1.0,6.0,77,0.00,CLR,,0.00,WeatherDisplay:10.37,2013-09-14 17:19:00,
2013-09-14 13:24:00,64.9,57.6,29.85,West,263,0.0,3.0,77,0.00,CLR,,0.00,WeatherDisplay:10.37,2013-09-14 17:24:00,
2013-09-14 13:29:00,65.1,56.6,29.85,ENE,72,1.0,3.0,74,0.00,CLR,,0.00,WeatherDisplay:10.37,2013-09-14 17:29:00,
2013-09-14 13:34:00,64.7,56.6,29.85,ENE,70,2.0,2.0,75,0.00,CLR,,0.00,WeatherDisplay:10.37,2013-09-14 17:34:00,
2013-09-14 13:39:00,64.8,57.0,29.85,West,261,2.0,3.0,76,0.00,CLR,,0.00,WeatherDisplay:10.37,2013-09-14 17:39:00,
2013-09-14 13:44:00,64.9,56.8,29.85,SW,214,0.0,2.0,75,0.00,CLR,,0.00,WeatherDisplay:10.37,2013-09-14 17:44:00,
2013-09-14 13:49:00,65.3,57.9,29.85,NNW,327,1.0,3.0,77,0.00,CLR,,0.00,WeatherDisplay:10.37,2013-09-14 17:49:00,
2013-09-14 13:54:00,65.8,58.0,29.85,WNW,297,0.0,3.0,76,0.00,CLR,,0.00,WeatherDisplay:10.37,2013-09-14 17:54:00,
2013-09-14 13:59:00,65.8,58.0,29.85,WSW,252,2.0,3.0,76,0.00,CLR,,0.00,WeatherDisplay:10.37,2013-09-14 17:59:00,
2013-09-14 14:04:00,65.7,57.9,29.85,WSW,244,0.0,3.0,76,0.00,CLR,,0.00,WeatherDisplay:10.37,2013-09-14 18:04:00,
2013-09-14 14:09:00,65.7,57.5,29.85,South,187,1.0,1.0,75,0.00,CLR,,0.00,WeatherDisplay:10.37,2013-09-14 18:09:00,
2013-09-14 14:14:00,65.1,56.6,29.84,East,82,1.0,2.0,74,0.00,CLR,,0.00,WeatherDisplay:10.37,2013-09-14 18:14:00,
2013-09-14 14:19:00,65.0,56.5,29.83,NNE,31,0.0,1.0,74,0.00,CLR,,0.00,WeatherDisplay:10.37,2013-09-14 18:19:00,
2013-09-14 14:24:00,64.8,56.6,29.83,NNW,343,0.0,1.0,75,0.00,CLR,,0.00,WeatherDisplay:10.37,2013-09-14 18:24:00,
2013-09-14 14:29:00,65.2,57.0,29.83,WNW,303,1.0,3.0,75,0.00,CLR,,0.00,WeatherDisplay:10.37,2013-09-14 18:29:00,
2013-09-14 14:34:00,65.5,57.3,29.83,WNW,288,1.0,2.0,75,0.00,CLR,,0.00,WeatherDisplay:10.37,2013-09-14 18:34:00,
2013-09-14 14:39:00,65.7,57.5,29.85,WSW,248,2.0,2.0,75,0.00,CLR,,0.00,WeatherDisplay:10.37,2013-09-14 18:39:00,
2013-09-14 14:44:00,65.7,56.8,29.84,WSW,250,2.0,4.0,73,0.00,CLR,,0.00,WeatherDisplay:10.37,2013-09-14 18:44:00,
2013-09-14 14:49:00,65.5,57.4,29.83,West,264,1.0,4.0,75,0.00,CLR,,0.00,WeatherDisplay:10.37,2013-09-14 18:49:00,
2013-09-14 14:54:00,65.5,57.0,29.83,WSW,240,0.0,3.0,74,0.00,CLR,,0.00,WeatherDisplay:10.37,2013-09-14 18:54:00,
2013-09-14 14:59:00,65.9,57.4,29.83,South,179,1.0,4.0,74,0.00,CLR,,0.00,WeatherDisplay:10.37,2013-09-14 18:59:00,
2013-09-14 15:04:00,66.0,57.1,29.83,SSW,207,0.0,4.0,73,0.00,CLR,,0.00,WeatherDisplay:10.37,2013-09-14 19:04:00,
2013-09-14 15:09:00,65.8,57.7,29.83,SSW,195,1.0,3.0,75,0.00,CLR,,0.00,WeatherDisplay:10.37,2013-09-14 19:09:00,
2013-09-14 15:14:00,65.8,57.3,29.83,SW,228,0.0,2.0,74,0.00,CLR,,0.00,WeatherDisplay:10.37,2013-09-14 19:14:00,
2013-09-14 15:19:00,65.8,57.3,29.83,West,268,0.0,1.0,74,0.00,CLR,,0.00,WeatherDisplay:10.37,2013-09-14 19:19:00,
2013-09-14 15:24:00,65.5,57.3,29.83,NW,326,0.0,2.0,75,0.00,CLR,,0.00,WeatherDisplay:10.37,2013-09-14 19:24:00,
2013-09-14 15:29:00,64.9,56.8,29.83,ENE,71,0.0,0.0,75,0.00,CLR,,0.00,WeatherDisplay:10.37,2013-09-14 19:29:00,
2013-09-14 15:34:00,64.9,56.8,29.83,NE,48,0.0,1.0,75,0.00,CLR,,0.00,WeatherDisplay:10.37,2013-09-14 19:34:00,
2013-09-14 15:39:00,64.8,56.6,29.83,SE,145,0.0,2.0,75,0.00,CLR,,0.00,WeatherDisplay:10.37,2013-09-14 19:39:00,
2013-09-14 15:44:00,64.9,56.8,29.84,SSE,153,0.0,2.0,75,0.00,CLR,,0.00,WeatherDisplay:10.37,2013-09-14 19:44:00,
2013-09-14 15:49:00,64.9,57.2,29.85,West,259,0.0,1.0,76,0.00,CLR,,0.00,WeatherDisplay:10.37,2013-09-14 19:49:00,
2013-09-14 15:54:00,65.3,57.5,29.85,South,179,0.0,1.0,76,0.00,CLR,,0.00,WeatherDisplay:10.37,2013-09-14 19:54:00,
2013-09-14 15:59:00,65.5,57.7,29.84,ESE,118,0.0,0.0,76,0.00,CLR,,0.00,WeatherDisplay:10.37,2013-09-14 19:59:00,
2013-09-14 16:04:00,65.7,57.1,29.83,WNW,296,1.0,3.0,74,0.00,CLR,,0.00,WeatherDisplay:10.37,2013-09-14 20:04:00,
2013-09-14 16:09:00,65.8,56.9,29.83,WNW,287,1.0,1.0,73,0.00,CLR,,0.00,WeatherDisplay:10.37,2013-09-14 20:09:00,
2013-09-14 16:14:00,66.0,57.1,29.84,NNW,342,2.0,2.0,73,0.00,CLR,,0.00,WeatherDisplay:10.37,2013-09-14 20:14:00,
2013-09-14 16:19:00,66.0,56.0,29.85,NNW,329,2.0,3.0,70,0.00,CLR,,0.00,WeatherDisplay:10.37,2013-09-14 20:19:00,
2013-09-14 16:24:00,66.0,56.3,29.85,North,9,1.0,2.0,71,0.00,CLR,,0.00,WeatherDisplay:10.37,2013-09-14 20:24:00,
2013-09-14 16:29:00,66.0,55.6,29.85,North,360,1.0,6.0,69,0.00,CLR,,0.00,WeatherDisplay:10.37,2013-09-14 20:29:00,
2013-09-14 16:34:00,66.2,56.1,29.85,WNW,302,2.0,3.0,70,0.00,CLR,,0.00,WeatherDisplay:10.37,2013-09-14 20:34:00,
2013-09-14 16:39:00,66.0,56.3,29.85,West,275,1.0,3.0,71,0.00,CLR,,0.00,WeatherDisplay:10.37,2013-09-14 20:39:00,
2013-09-14 16:44:00,65.8,55.8,29.85,WNW,296,1.0,2.0,70,0.00,CLR,,0.00,WeatherDisplay:10.37,2013-09-14 20:44:00,
2013-09-14 16:49:00,65.7,56.4,29.85,North,2,0.0,2.0,72,0.00,CLR,,0.00,WeatherDisplay:10.37,2013-09-14 20:49:00,
2013-09-14 16:54:00,65.5,56.2,29.85,North,351,1.0,1.0,72,0.00,CLR,,0.00,WeatherDisplay:10.37,2013-09-14 20:54:00,
2013-09-14 16:59:00,65.1,55.5,29.85,NE,34,1.0,2.0,71,0.00,CLR,,0.00,WeatherDisplay:10.37,2013-09-14 20:59:00,
2013-09-14 17:04:00,65.1,55.9,29.85,NNE,28,1.0,2.0,72,0.00,CLR,,0.00,WeatherDisplay:10.37,2013-09-14 21:04:00,
2013-09-14 17:09:00,65.1,55.9,29.85,North,7,1.0,2.0,72,0.00,CLR,,0.00,WeatherDisplay:10.37,2013-09-14 21:09:00,
2013-09-14 17:14:00,64.8,55.5,29.85,WNW,290,0.0,2.0,72,0.00,CLR,,0.00,WeatherDisplay:10.37,2013-09-14 21:14:00,
2013-09-14 17:19:00,64.8,55.5,29.85,NW,312,1.0,2.0,72,0.00,CLR,,0.00,WeatherDisplay:10.37,2013-09-14 21:19:00,
2013-09-14 17:24:00,64.8,55.9,29.85,SSW,201,0.0,2.0,73,0.00,CLR,,0.00,WeatherDisplay:10.37,2013-09-14 21:24:00,
2013-09-14 17:29:00,64.6,55.7,29.87,WSW,242,2.0,2.0,73,0.00,CLR,,0.00,WeatherDisplay:10.37,2013-09-14 21:29:00,
2013-09-14 17:34:00,64.2,55.4,29.88,NNE,12,0.0,2.0,73,0.00,CLR,,0.00,WeatherDisplay:10.37,2013-09-14 21:34:00,
2013-09-14 17:39:00,64.0,55.2,29.88,NNW,343,0.0,0.0,73,0.00,CLR,,0.00,WeatherDisplay:10.37,2013-09-14 21:39:00,
2013-09-14 17:44:00,63.9,55.0,29.88,NNW,336,0.0,2.0,73,0.00,CLR,,0.00,WeatherDisplay:10.37,2013-09-14 21:44:00,
2013-09-14 17:49:00,63.7,54.9,29.88,ENE,67,0.0,2.0,73,0.00,CLR,,0.00,WeatherDisplay:10.37,2013-09-14 21:49:00,
2013-09-14 17:54:00,63.5,54.7,29.88,NNE,25,0.0,1.0,73,0.00,CLR,,0.00,WeatherDisplay:10.37,2013-09-14 21:54:00,
2013-09-14 17:59:00,63.5,54.7,29.88,WNW,297,0.0,1.0,73,0.00,CLR,,0.00,WeatherDisplay:10.37,2013-09-14 21:59:00,
2013-09-14 18:04:00,63.3,54.9,29.88,NW,317,0.0,0.0,74,0.00,CLR,,0.00,WeatherDisplay:10.37,2013-09-14 22:04:00,
2013-09-14 18:09:00,63.1,54.3,29.88,WNW,299,1.0,1.0,73,0.00,CLR,,0.00,WeatherDisplay:10.37,2013-09-14 22:09:00,
2013-09-14 18:14:00,63.0,54.2,29.88,WNW,296,0.0,1.0,73,0.00,CLR,,0.00,WeatherDisplay:10.37,2013-09-14 22:14:00,
2013-09-14 18:19:00,62.6,54.2,29.88,NNW,343,0.0,1.0,74,0.00,CLR,,0.00,WeatherDisplay:10.37,2013-09-14 22:19:00,
2013-09-14 18:24:00,62.4,54.0,29.88,South,172,0.0,0.0,74,0.00,CLR,,0.00,WeatherDisplay:10.37,2013-09-14 22:24:00,
2013-09-14 18:29:00,62.2,54.2,29.88,SW,224,1.0,1.0,75,0.00,CLR,,0.00,WeatherDisplay:10.37,2013-09-14 22:29:00,
2013-09-14 18:34:00,61.9,53.9,29.88,NW,315,0.0,1.0,75,0.00,CLR,,0.00,WeatherDisplay:10.37,2013-09-14 22:34:00,
2013-09-14 18:39:00,61.7,53.3,29.88,SSW,192,0.0,2.0,74,0.00,CLR,,0.00,WeatherDisplay:10.37,2013-09-14 22:39:00,
2013-09-14 18:44:00,61.4,53.4,29.90,SSE,154,0.0,0.0,75,0.00,CLR,,0.00,WeatherDisplay:10.37,2013-09-14 22:44:00,
2013-09-14 18:49:00,61.1,53.1,29.91,SE,141,0.0,0.0,75,0.00,CLR,,0.00,WeatherDisplay:10.37,2013-09-14 22:49:00,
2013-09-14 18:54:00,60.6,52.6,29.91,SE,125,0.0,0.0,75,0.00,CLR,,0.00,WeatherDisplay:10.37,2013-09-14 22:54:00,
2013-09-14 18:59:00,60.4,52.8,29.91,ESE,120,0.0,0.0,76,0.00,CLR,,0.00,WeatherDisplay:10.37,2013-09-14 22:59:00,
2013-09-14 19:04:00,60.1,52.5,29.91,SE,133,0.0,0.0,76,0.00,CLR,,0.00,WeatherDisplay:10.37,2013-09-14 23:04:00,
2013-09-14 19:09:00,59.9,52.3,29.91,SE,125,0.0,0.0,76,0.00,CLR,,0.00,WeatherDisplay:10.37,2013-09-14 23:09:00,
2013-09-14 19:14:00,59.7,52.5,29.91,East,93,0.0,0.0,77,0.00,CLR,,0.00,WeatherDisplay:10.37,2013-09-14 23:14:00,
2013-09-14 19:19:00,59.4,52.2,29.91,South,176,0.0,1.0,77,0.00,CLR,,0.00,WeatherDisplay:10.37,2013-09-14 23:19:00,
2013-09-14 19:24:00,59.2,52.0,29.91,SSW,202,0.0,0.0,77,0.00,CLR,,0.00,WeatherDisplay:10.37,2013-09-14 23:24:00,
2013-09-14 19:29:00,58.8,51.6,29.91,South,187,0.0,0.0,77,0.00,CLR,,0.00,WeatherDisplay:10.37,2013-09-14 23:29:00,
2013-09-14 19:34:00,58.6,51.4,29.91,SW,236,0.0,0.0,77,0.00,CLR,,0.00,WeatherDisplay:10.37,2013-09-14 23:34:00,
2013-09-14 19:39:00,58.5,51.6,29.91,West,276,0.0,0.0,78,0.00,CLR,,0.00,WeatherDisplay:10.37,2013-09-14 23:39:00,
2013-09-14 19:44:00,58.5,51.6,29.91,West,270,0.0,1.0,78,0.00,CLR,,0.00,WeatherDisplay:10.37,2013-09-14 23:44:00,
2013-09-14 19:49:00,58.4,51.5,29.91,SW,217,0.0,0.0,78,0.00,CLR,,0.00,WeatherDisplay:10.37,2013-09-14 23:49:00,
2013-09-14 19:54:00,58.2,51.4,29.91,SW,216,0.0,0.0,78,0.00,CLR,,0.00,WeatherDisplay:10.37,2013-09-14 23:54:00,
2013-09-14 19:59:00,57.9,51.1,29.93,South,191,0.0,0.0,78,0.00,CLR,,0.00,WeatherDisplay:10.37,2013-09-14 23:59:00,
2013-09-14 20:04:00,57.7,50.9,29.94,South,180,0.0,0.0,78,0.00,CLR,,0.00,WeatherDisplay:10.37,2013-09-15 00:04:00,
2013-09-14 20:09:00,57.6,50.8,29.94,South,185,0.0,0.0,78,0.00,CLR,,0.00,WeatherDisplay:10.37,2013-09-15 00:09:00,
2013-09-14 20:14:00,57.4,50.6,29.94,SE,129,0.0,0.0,78,0.00,CLR,,0.00,WeatherDisplay:10.37,2013-09-15 00:14:00,
2013-09-14 20:19:00,57.2,50.4,29.94,ESE,112,0.0,0.0,78,0.00,CLR,,0.00,WeatherDisplay:10.37,2013-09-15 00:19:00,
2013-09-14 20:24:00,57.2,50.7,29.94,SE,135,0.0,0.0,79,0.00,CLR,,0.00,WeatherDisplay:10.37,2013-09-15 00:24:00,
2013-09-14 20:29:00,56.8,50.4,29.94,South,171,0.0,0.0,79,0.00,CLR,,0.00,WeatherDisplay:10.37,2013-09-15 00:29:00,
2013-09-14 20:34:00,56.7,50.2,29.94,SSE,161,0.0,0.0,79,0.00,CLR,,0.00,WeatherDisplay:10.37,2013-09-15 00:34:00,
2013-09-14 20:39:00,56.5,50.0,29.94,SE,124,0.0,0.0,79,0.00,CLR,,0.00,WeatherDisplay:10.37,2013-09-15 00:39:00,
2013-09-14 20:44:00,56.3,50.2,29.94,SE,126,0.0,0.0,80,0.00,CLR,,0.00,WeatherDisplay:10.37,2013-09-15 00:44:00,
2013-09-14 20:49:00,56.3,50.2,29.94,SE,135,0.0,0.0,80,0.00,CLR,,0.00,WeatherDisplay:10.37,2013-09-15 00:49:00,
2013-09-14 20:54:00,56.3,50.2,29.94,SE,135,0.0,0.0,80,0.00,CLR,,0.00,WeatherDisplay:10.37,2013-09-15 00:54:00,
2013-09-14 20:59:00,56.1,50.0,29.94,SE,135,0.0,0.0,80,0.00,CLR,,0.00,WeatherDisplay:10.37,2013-09-15 00:59:00,
2013-09-14 21:04:00,55.8,49.7,29.94,SE,135,0.0,0.0,80,0.00,CLR,,0.00,WeatherDisplay:10.37,2013-09-15 01:04:00,
2013-09-14 21:09:00,55.4,49.3,29.94,SE,135,0.0,0.0,80,0.00,CLR,,0.00,WeatherDisplay:10.37,2013-09-15 01:09:00,
2013-09-14 21:14:00,55.3,49.5,29.94,SE,135,0.0,0.0,81,0.00,CLR,,0.00,WeatherDisplay:10.37,2013-09-15 01:14:00,
2013-09-14 21:19:00,55.0,49.3,29.94,SE,131,0.0,0.0,81,0.00,CLR,,0.00,WeatherDisplay:10.37,2013-09-15 01:19:00,
2013-09-14 21:24:00,55.0,49.3,29.94,ESE,108,0.0,0.0,81,0.00,CLR,,0.00,WeatherDisplay:10.37,2013-09-15 01:24:00,
2013-09-14 21:29:00,54.9,49.5,29.94,East,90,0.0,0.0,82,0.00,CLR,,0.00,WeatherDisplay:10.37,2013-09-15 01:29:00,
2013-09-14 21:34:00,54.5,49.1,29.94,East,93,0.0,0.0,82,0.00,CLR,,0.00,WeatherDisplay:10.37,2013-09-15 01:34:00,
2013-09-14 21:39:00,54.3,48.9,29.94,ESE,105,0.0,0.0,82,0.00,CLR,,0.00,WeatherDisplay:10.37,2013-09-15 01:39:00,
2013-09-14 21:44:00,54.1,48.7,29.94,ESE,112,0.0,0.0,82,0.00,CLR,,0.00,WeatherDisplay:10.37,2013-09-15 01:44:00,
2013-09-14 21:49:00,54.1,48.7,29.94,ESE,109,0.0,0.0,82,0.00,CLR,,0.00,WeatherDisplay:10.37,2013-09-15 01:49:00,
2013-09-14 21:54:00,53.9,48.6,29.94,East,97,0.0,0.0,82,0.00,CLR,,0.00,WeatherDisplay:10.37,2013-09-15 01:54:00,
2013-09-14 21:59:00,53.8,48.4,29.96,East,90,0.0,0.0,82,0.00,CLR,,0.00,WeatherDisplay:10.37,2013-09-15 01:59:00,
2013-09-14 22:04:00,53.6,48.2,29.97,East,90,0.0,0.0,82,0.00,CLR,,0.00,WeatherDisplay:10.37,2013-09-15 02:04:00,
2013-09-14 22:09:00,53.4,48.4,29.97,ENE,74,0.0,0.0,83,0.00,CLR,,0.00,WeatherDisplay:10.37,2013-09-15 02:09:00,
2013-09-14 22:14:00,53.1,48.1,29.97,ENE,67,0.0,0.0,83,0.00,CLR,,0.00,WeatherDisplay:10.37,2013-09-15 02:14:00,
2013-09-14 22:19:00,53.1,48.0,29.97,ENE,68,0.0,0.0,83,0.00,CLR,,0.00,WeatherDisplay:10.37,2013-09-15 02:19:00,
2013-09-14 22:24:00,52.9,47.9,29.97,ENE,68,0.0,0.0,83,0.00,CLR,,0.00,WeatherDisplay:10.37,2013-09-15 02:24:00,
2013-09-14 22:29:00,52.7,47.7,29.97,ENE,68,0.0,0.0,83,0.00,CLR,,0.00,WeatherDisplay:10.37,2013-09-15 02:29:00,
2013-09-14 22:34:00,52.5,47.5,29.97,ENE,68,0.0,0.0,83,0.00,CLR,,0.00,WeatherDisplay:10.37,2013-09-15 02:34:00,
2013-09-14 22:39:00,52.5,47.5,29.97,East,79,0.0,0.0,83,0.00,CLR,,0.00,WeatherDisplay:10.37,2013-09-15 02:39:00,
2013-09-14 22:44:00,52.2,47.5,29.97,East,90,0.0,0.0,84,0.00,CLR,,0.00,WeatherDisplay:10.37,2013-09-15 02:44:00,
2013-09-14 22:49:00,52.2,47.5,29.97,East,90,0.0,0.0,84,0.00,CLR,,0.00,WeatherDisplay:10.37,2013-09-15 02:49:00,
2013-09-14 22:54:00,52.2,47.5,29.97,East,90,0.0,0.0,84,0.00,CLR,,0.00,WeatherDisplay:10.37,2013-09-15 02:54:00,
2013-09-14 22:59:00,52.2,47.5,29.97,East,90,0.0,0.0,84,0.00,CLR,,0.00,WeatherDisplay:10.37,2013-09-15 02:59:00,
2013-09-14 23:04:00,52.0,47.3,29.97,East,90,0.0,0.0,84,0.00,CLR,,0.00,WeatherDisplay:10.37,2013-09-15 03:04:00,
2013-09-14 23:09:00,51.8,47.1,29.97,East,90,0.0,0.0,84,0.00,CLR,,0.00,WeatherDisplay:10.37,2013-09-15 03:09:00,
2013-09-14 23:14:00,51.8,47.1,29.97,East,90,0.0,0.0,84,0.00,CLR,,0.00,WeatherDisplay:10.37,2013-09-15 03:14:00,
2013-09-14 23:19:00,51.6,46.9,29.97,East,90,0.0,0.0,84,0.00,CLR,,0.00,WeatherDisplay:10.37,2013-09-15 03:19:00,
2013-09-14 23:24:00,51.6,46.9,29.97,East,90,0.0,0.0,84,0.00,CLR,,0.00,WeatherDisplay:10.37,2013-09-15 03:24:00,
2013-09-14 23:29:00,51.4,46.8,29.97,East,90,0.0,0.0,84,0.00,CLR,,0.00,WeatherDisplay:10.37,2013-09-15 03:29:00,
2013-09-14 23:34:00,51.3,46.6,29.97,East,90,0.0,0.0,84,0.00,CLR,,0.00,WeatherDisplay:10.37,2013-09-15 03:34:00,
2013-09-14 23:39:00,51.3,46.6,29.97,East,90,0.0,0.0,84,0.00,CLR,,0.00,WeatherDisplay:10.37,2013-09-15 03:39:00,
2013-09-14 23:44:00,51.0,46.3,29.97,East,90,0.0,0.0,84,0.00,CLR,,0.00,WeatherDisplay:10.37,2013-09-15 03:44:00,
2013-09-14 23:49:00,50.7,46.1,29.97,East,90,0.0,0.0,84,0.00,CLR,,0.00,WeatherDisplay:10.37,2013-09-15 03:49:00,
2013-09-14 23:54:00,50.5,45.9,29.97,East,90,0.0,0.0,84,0.00,CLR,,0.00,WeatherDisplay:10.37,2013-09-15 03:54:00,
2013-09-14 23:59:00,50.4,45.7,29.97,East,90,0.0,0.0,84,0.00,CLR,,0.00,WeatherDisplay:10.37,2013-09-15 03:59:00,